sensor_id;sensor_type;location;lat;lon;timestamp;P1;durP1;ratioP1;P2;durP2;ratioP2
13872;SDS011;7006;51.494;11.964;2022-08-03T00:00:51;7.37;;;6.50;;
13872;SDS011;7006;51.494;11.964;2022-08-03T00:03:19;7.17;;;6.43;;
13872;SDS011;7006;51.494;11.964;2022-08-03T00:05:45;6.73;;;6.07;;
13872;SDS011;7006;51.494;11.964;2022-08-03T00:08:13;6.57;;;5.87;;
13872;SDS011;7006;51.494;11.964;2022-08-03T00:10:40;8.77;;;6.90;;
13872;SDS011;7006;51.494;11.964;2022-08-03T00:13:06;9.40;;;6.60;;
13872;SDS011;7006;51.494;11.964;2022-08-03T00:15:33;6.37;;;5.77;;
13872;SDS011;7006;51.494;11.964;2022-08-03T00:17:59;6.80;;;6.00;;
13872;SDS011;7006;51.494;11.964;2022-08-03T00:20:26;6.67;;;5.90;;
13872;SDS011;7006;51.494;11.964;2022-08-03T00:22:52;7.87;;;7.03;;
13872;SDS011;7006;51.494;11.964;2022-08-03T00:25:20;7.90;;;6.13;;
13872;SDS011;7006;51.494;11.964;2022-08-03T00:27:47;7.27;;;6.27;;
13872;SDS011;7006;51.494;11.964;2022-08-03T00:30:13;8.60;;;6.60;;
13872;SDS011;7006;51.494;11.964;2022-08-03T00:32:40;7.20;;;6.50;;
13872;SDS011;7006;51.494;11.964;2022-08-03T00:35:06;7.37;;;6.13;;
13872;SDS011;7006;51.494;11.964;2022-08-03T00:37:33;9.90;;;7.10;;
13872;SDS011;7006;51.494;11.964;2022-08-03T00:40:00;8.03;;;6.63;;
13872;SDS011;7006;51.494;11.964;2022-08-03T00:42:28;7.40;;;6.70;;
13872;SDS011;7006;51.494;11.964;2022-08-03T00:44:54;7.43;;;6.70;;
13872;SDS011;7006;51.494;11.964;2022-08-03T00:47:21;7.27;;;6.37;;
13872;SDS011;7006;51.494;11.964;2022-08-03T00:49:47;7.63;;;6.80;;
13872;SDS011;7006;51.494;11.964;2022-08-03T00:52:14;8.37;;;6.80;;
13872;SDS011;7006;51.494;11.964;2022-08-03T00:54:41;10.97;;;7.30;;
13872;SDS011;7006;51.494;11.964;2022-08-03T00:57:08;8.57;;;6.60;;
13872;SDS011;7006;51.494;11.964;2022-08-03T00:59:35;6.57;;;5.97;;
13872;SDS011;7006;51.494;11.964;2022-08-03T01:02:03;7.83;;;6.77;;
13872;SDS011;7006;51.494;11.964;2022-08-03T01:04:30;9.40;;;6.57;;
13872;SDS011;7006;51.494;11.964;2022-08-03T01:06:59;8.60;;;7.13;;
13872;SDS011;7006;51.494;11.964;2022-08-03T01:09:32;7.27;;;6.57;;
13872;SDS011;7006;51.494;11.964;2022-08-03T01:12:07;9.53;;;7.10;;
13872;SDS011;7006;51.494;11.964;2022-08-03T01:14:40;8.17;;;7.10;;
13872;SDS011;7006;51.494;11.964;2022-08-03T01:17:10;9.27;;;7.43;;
13872;SDS011;7006;51.494;11.964;2022-08-03T01:19:40;8.20;;;6.80;;
13872;SDS011;7006;51.494;11.964;2022-08-03T01:25:02;9.13;;;6.90;;
13872;SDS011;7006;51.494;11.964;2022-08-03T01:27:36;7.90;;;7.10;;
13872;SDS011;7006;51.494;11.964;2022-08-03T01:30:10;10.17;;;6.80;;
13872;SDS011;7006;51.494;11.964;2022-08-03T01:32:39;7.40;;;6.70;;
13872;SDS011;7006;51.494;11.964;2022-08-03T01:35:08;11.10;;;7.37;;
13872;SDS011;7006;51.494;11.964;2022-08-03T01:37:38;7.80;;;7.00;;
13872;SDS011;7006;51.494;11.964;2022-08-03T01:40:08;39.97;;;7.77;;
13872;SDS011;7006;51.494;11.964;2022-08-03T01:42:37;7.70;;;6.90;;
13872;SDS011;7006;51.494;11.964;2022-08-03T01:45:06;8.10;;;7.30;;
13872;SDS011;7006;51.494;11.964;2022-08-03T01:47:36;9.67;;;6.77;;
13872;SDS011;7006;51.494;11.964;2022-08-03T01:50:03;8.37;;;6.40;;
13872;SDS011;7006;51.494;11.964;2022-08-03T01:52:31;8.97;;;8.17;;
13872;SDS011;7006;51.494;11.964;2022-08-03T01:54:58;8.80;;;7.60;;
13872;SDS011;7006;51.494;11.964;2022-08-03T01:57:25;7.80;;;7.10;;
13872;SDS011;7006;51.494;11.964;2022-08-03T01:59:53;9.63;;;7.00;;
13872;SDS011;7006;51.494;11.964;2022-08-03T02:02:22;8.13;;;7.33;;
13872;SDS011;7006;51.494;11.964;2022-08-03T02:04:50;11.07;;;7.00;;
13872;SDS011;7006;51.494;11.964;2022-08-03T02:07:18;8.17;;;7.00;;
13872;SDS011;7006;51.494;11.964;2022-08-03T02:09:45;9.30;;;7.23;;
13872;SDS011;7006;51.494;11.964;2022-08-03T02:12:14;8.17;;;7.37;;
13872;SDS011;7006;51.494;11.964;2022-08-03T02:14:42;10.80;;;7.43;;
13872;SDS011;7006;51.494;11.964;2022-08-03T02:17:09;9.90;;;7.20;;
13872;SDS011;7006;51.494;11.964;2022-08-03T02:19:39;9.07;;;7.60;;
13872;SDS011;7006;51.494;11.964;2022-08-03T02:22:07;8.63;;;7.80;;
13872;SDS011;7006;51.494;11.964;2022-08-03T02:24:35;8.03;;;7.23;;
13872;SDS011;7006;51.494;11.964;2022-08-03T02:27:02;9.30;;;7.80;;
13872;SDS011;7006;51.494;11.964;2022-08-03T02:29:32;9.60;;;7.50;;
13872;SDS011;7006;51.494;11.964;2022-08-03T02:32:00;10.47;;;7.83;;
13872;SDS011;7006;51.494;11.964;2022-08-03T02:34:28;8.47;;;7.50;;
13872;SDS011;7006;51.494;11.964;2022-08-03T02:36:58;13.13;;;7.27;;
13872;SDS011;7006;51.494;11.964;2022-08-03T02:39:25;11.13;;;7.57;;
13872;SDS011;7006;51.494;11.964;2022-08-03T02:41:53;10.97;;;7.60;;
13872;SDS011;7006;51.494;11.964;2022-08-03T02:44:26;10.53;;;7.27;;
13872;SDS011;7006;51.494;11.964;2022-08-03T02:46:54;9.90;;;7.80;;
13872;SDS011;7006;51.494;11.964;2022-08-03T02:49:21;7.93;;;7.13;;
13872;SDS011;7006;51.494;11.964;2022-08-03T02:51:48;12.93;;;7.67;;
13872;SDS011;7006;51.494;11.964;2022-08-03T02:54:17;10.97;;;7.00;;
13872;SDS011;7006;51.494;11.964;2022-08-03T02:56:44;8.40;;;7.50;;
13872;SDS011;7006;51.494;11.964;2022-08-03T02:59:12;9.97;;;7.73;;
13872;SDS011;7006;51.494;11.964;2022-08-03T03:01:39;9.67;;;7.33;;
13872;SDS011;7006;51.494;11.964;2022-08-03T03:04:05;8.93;;;7.23;;
13872;SDS011;7006;51.494;11.964;2022-08-03T03:06:32;11.73;;;7.77;;
13872;SDS011;7006;51.494;11.964;2022-08-03T03:09:00;15.93;;;7.40;;
13872;SDS011;7006;51.494;11.964;2022-08-03T03:11:29;8.10;;;7.30;;
13872;SDS011;7006;51.494;11.964;2022-08-03T03:13:56;12.83;;;8.50;;
13872;SDS011;7006;51.494;11.964;2022-08-03T03:16:22;12.00;;;7.83;;
13872;SDS011;7006;51.494;11.964;2022-08-03T03:18:51;10.43;;;7.37;;
13872;SDS011;7006;51.494;11.964;2022-08-03T03:21:19;9.20;;;7.10;;
13872;SDS011;7006;51.494;11.964;2022-08-03T03:23:46;9.13;;;7.10;;
13872;SDS011;7006;51.494;11.964;2022-08-03T03:26:13;8.50;;;7.20;;
13872;SDS011;7006;51.494;11.964;2022-08-03T03:28:42;8.50;;;7.57;;
13872;SDS011;7006;51.494;11.964;2022-08-03T03:31:09;10.33;;;8.37;;
13872;SDS011;7006;51.494;11.964;2022-08-03T03:33:36;9.87;;;7.73;;
13872;SDS011;7006;51.494;11.964;2022-08-03T03:36:03;8.47;;;7.67;;
13872;SDS011;7006;51.494;11.964;2022-08-03T03:38:32;8.37;;;7.17;;
13872;SDS011;7006;51.494;11.964;2022-08-03T03:40:59;9.50;;;7.27;;
13872;SDS011;7006;51.494;11.964;2022-08-03T03:43:26;8.03;;;7.23;;
13872;SDS011;7006;51.494;11.964;2022-08-03T03:45:54;8.90;;;7.27;;
13872;SDS011;7006;51.494;11.964;2022-08-03T03:48:22;8.70;;;7.10;;
13872;SDS011;7006;51.494;11.964;2022-08-03T03:50:49;10.70;;;7.40;;
13872;SDS011;7006;51.494;11.964;2022-08-03T03:53:16;11.90;;;7.70;;
13872;SDS011;7006;51.494;11.964;2022-08-03T03:55:42;8.33;;;7.50;;
13872;SDS011;7006;51.494;11.964;2022-08-03T03:58:09;10.20;;;7.57;;
13872;SDS011;7006;51.494;11.964;2022-08-03T04:00:35;9.23;;;7.43;;
13872;SDS011;7006;51.494;11.964;2022-08-03T04:03:03;9.87;;;7.80;;
13872;SDS011;7006;51.494;11.964;2022-08-03T04:05:30;9.00;;;7.57;;
13872;SDS011;7006;51.494;11.964;2022-08-03T04:08:15;7.77;;;7.10;;
13872;SDS011;7006;51.494;11.964;2022-08-03T04:11:02;8.53;;;7.53;;
13872;SDS011;7006;51.494;11.964;2022-08-03T04:13:32;9.47;;;7.40;;
13872;SDS011;7006;51.494;11.964;2022-08-03T04:16:00;13.40;;;8.00;;
13872;SDS011;7006;51.494;11.964;2022-08-03T04:18:30;10.50;;;8.20;;
13872;SDS011;7006;51.494;11.964;2022-08-03T04:21:00;10.47;;;7.53;;
13872;SDS011;7006;51.494;11.964;2022-08-03T04:23:29;8.23;;;6.73;;
13872;SDS011;7006;51.494;11.964;2022-08-03T04:25:57;9.67;;;7.73;;
13872;SDS011;7006;51.494;11.964;2022-08-03T04:28:24;8.50;;;7.50;;
13872;SDS011;7006;51.494;11.964;2022-08-03T04:30:51;8.37;;;7.53;;
13872;SDS011;7006;51.494;11.964;2022-08-03T04:33:18;11.70;;;8.20;;
13872;SDS011;7006;51.494;11.964;2022-08-03T04:35:46;12.77;;;8.50;;
13872;SDS011;7006;51.494;11.964;2022-08-03T04:38:14;13.40;;;7.70;;
13872;SDS011;7006;51.494;11.964;2022-08-03T04:40:43;16.13;;;7.33;;
13872;SDS011;7006;51.494;11.964;2022-08-03T04:43:11;10.82;;;7.55;;
13872;SDS011;7006;51.494;11.964;2022-08-03T04:45:38;10.57;;;7.30;;
13872;SDS011;7006;51.494;11.964;2022-08-03T04:48:06;7.37;;;6.60;;
13872;SDS011;7006;51.494;11.964;2022-08-03T04:50:32;11.63;;;7.00;;
13872;SDS011;7006;51.494;11.964;2022-08-03T04:53:00;8.53;;;7.20;;
13872;SDS011;7006;51.494;11.964;2022-08-03T04:55:27;7.93;;;6.37;;
13872;SDS011;7006;51.494;11.964;2022-08-03T04:57:54;8.13;;;7.30;;
13872;SDS011;7006;51.494;11.964;2022-08-03T05:00:21;12.10;;;7.10;;
13872;SDS011;7006;51.494;11.964;2022-08-03T05:02:48;10.93;;;8.07;;
13872;SDS011;7006;51.494;11.964;2022-08-03T05:05:14;9.13;;;7.23;;
13872;SDS011;7006;51.494;11.964;2022-08-03T05:07:41;10.43;;;6.97;;
13872;SDS011;7006;51.494;11.964;2022-08-03T05:10:10;9.13;;;5.77;;
13872;SDS011;7006;51.494;11.964;2022-08-03T05:12:37;7.17;;;6.47;;
13872;SDS011;7006;51.494;11.964;2022-08-03T05:15:04;8.70;;;6.37;;
13872;SDS011;7006;51.494;11.964;2022-08-03T05:17:31;9.03;;;7.43;;
13872;SDS011;7006;51.494;11.964;2022-08-03T05:19:58;9.77;;;6.47;;
13872;SDS011;7006;51.494;11.964;2022-08-03T05:22:25;7.67;;;6.87;;
13872;SDS011;7006;51.494;11.964;2022-08-03T05:24:52;7.53;;;6.67;;
13872;SDS011;7006;51.494;11.964;2022-08-03T05:27:20;9.57;;;7.50;;
13872;SDS011;7006;51.494;11.964;2022-08-03T05:29:46;11.00;;;8.30;;
13872;SDS011;7006;51.494;11.964;2022-08-03T05:32:14;13.77;;;9.73;;
13872;SDS011;7006;51.494;11.964;2022-08-03T05:34:41;13.53;;;9.57;;
13872;SDS011;7006;51.494;11.964;2022-08-03T05:37:07;10.47;;;7.80;;
13872;SDS011;7006;51.494;11.964;2022-08-03T05:39:34;10.70;;;8.20;;
13872;SDS011;7006;51.494;11.964;2022-08-03T05:42:01;12.13;;;9.10;;
13872;SDS011;7006;51.494;11.964;2022-08-03T05:44:29;7.88;;;6.07;;
13872;SDS011;7006;51.494;11.964;2022-08-03T05:46:56;8.10;;;5.90;;
13872;SDS011;7006;51.494;11.964;2022-08-03T05:49:23;6.83;;;6.03;;
13872;SDS011;7006;51.494;11.964;2022-08-03T05:51:49;8.33;;;5.63;;
13872;SDS011;7006;51.494;11.964;2022-08-03T05:54:16;9.73;;;6.10;;
13872;SDS011;7006;51.494;11.964;2022-08-03T05:56:43;11.50;;;6.40;;
13872;SDS011;7006;51.494;11.964;2022-08-03T05:59:09;10.83;;;6.23;;
13872;SDS011;7006;51.494;11.964;2022-08-03T06:01:37;11.03;;;5.90;;
13872;SDS011;7006;51.494;11.964;2022-08-03T06:04:04;10.53;;;5.63;;
13872;SDS011;7006;51.494;11.964;2022-08-03T06:06:30;9.13;;;5.57;;
13872;SDS011;7006;51.494;11.964;2022-08-03T06:08:57;11.63;;;5.77;;
13872;SDS011;7006;51.494;11.964;2022-08-03T06:11:23;7.37;;;5.70;;
13872;SDS011;7006;51.494;11.964;2022-08-03T06:13:50;6.00;;;5.40;;
13872;SDS011;7006;51.494;11.964;2022-08-03T06:16:16;7.70;;;5.80;;
13872;SDS011;7006;51.494;11.964;2022-08-03T06:18:44;7.27;;;5.50;;
13872;SDS011;7006;51.494;11.964;2022-08-03T06:21:11;6.83;;;5.60;;
13872;SDS011;7006;51.494;11.964;2022-08-03T06:23:38;8.60;;;5.07;;
13872;SDS011;7006;51.494;11.964;2022-08-03T06:26:07;8.73;;;5.70;;
13872;SDS011;7006;51.494;11.964;2022-08-03T06:28:34;5.87;;;5.27;;
13872;SDS011;7006;51.494;11.964;2022-08-03T06:31:01;9.03;;;5.90;;
13872;SDS011;7006;51.494;11.964;2022-08-03T06:33:28;7.03;;;4.63;;
13872;SDS011;7006;51.494;11.964;2022-08-03T06:35:56;8.30;;;5.20;;
13872;SDS011;7006;51.494;11.964;2022-08-03T06:38:22;6.73;;;4.73;;
13872;SDS011;7006;51.494;11.964;2022-08-03T06:40:49;5.73;;;4.67;;
13872;SDS011;7006;51.494;11.964;2022-08-03T06:43:15;7.23;;;4.57;;
13872;SDS011;7006;51.494;11.964;2022-08-03T06:45:42;7.67;;;4.23;;
13872;SDS011;7006;51.494;11.964;2022-08-03T06:48:09;5.50;;;4.20;;
13872;SDS011;7006;51.494;11.964;2022-08-03T06:50:37;5.90;;;4.00;;
13872;SDS011;7006;51.494;11.964;2022-08-03T06:53:06;5.77;;;4.30;;
13872;SDS011;7006;51.494;11.964;2022-08-03T06:55:34;6.43;;;5.00;;
13872;SDS011;7006;51.494;11.964;2022-08-03T06:58:00;6.47;;;4.40;;
13872;SDS011;7006;51.494;11.964;2022-08-03T07:00:27;7.63;;;4.40;;
13872;SDS011;7006;51.494;11.964;2022-08-03T07:02:54;5.67;;;4.10;;
13872;SDS011;7006;51.494;11.964;2022-08-03T07:05:21;5.90;;;4.40;;
13872;SDS011;7006;51.494;11.964;2022-08-03T07:07:48;4.67;;;4.17;;
13872;SDS011;7006;51.494;11.964;2022-08-03T07:10:15;4.57;;;4.17;;
13872;SDS011;7006;51.494;11.964;2022-08-03T07:12:42;5.43;;;3.70;;
13872;SDS011;7006;51.494;11.964;2022-08-03T07:15:09;6.63;;;3.97;;
13872;SDS011;7006;51.494;11.964;2022-08-03T07:17:36;5.20;;;3.70;;
13872;SDS011;7006;51.494;11.964;2022-08-03T07:20:03;6.23;;;4.50;;
13872;SDS011;7006;51.494;11.964;2022-08-03T07:22:31;6.87;;;4.43;;
13872;SDS011;7006;51.494;11.964;2022-08-03T07:24:58;8.33;;;3.97;;
13872;SDS011;7006;51.494;11.964;2022-08-03T07:27:26;5.03;;;3.80;;
13872;SDS011;7006;51.494;11.964;2022-08-03T07:29:53;4.37;;;3.33;;
13872;SDS011;7006;51.494;11.964;2022-08-03T07:32:20;7.37;;;3.50;;
13872;SDS011;7006;51.494;11.964;2022-08-03T07:34:47;3.50;;;3.20;;
13872;SDS011;7006;51.494;11.964;2022-08-03T07:37:13;4.80;;;3.80;;
13872;SDS011;7006;51.494;11.964;2022-08-03T07:39:40;5.27;;;3.33;;
13872;SDS011;7006;51.494;11.964;2022-08-03T07:42:06;7.27;;;3.10;;
13872;SDS011;7006;51.494;11.964;2022-08-03T07:44:35;4.80;;;3.53;;
13872;SDS011;7006;51.494;11.964;2022-08-03T07:47:03;5.43;;;3.40;;
13872;SDS011;7006;51.494;11.964;2022-08-03T07:49:29;4.30;;;3.10;;
13872;SDS011;7006;51.494;11.964;2022-08-03T07:51:56;5.03;;;3.63;;
13872;SDS011;7006;51.494;11.964;2022-08-03T07:54:40;6.37;;;3.73;;
13872;SDS011;7006;51.494;11.964;2022-08-03T07:57:07;4.80;;;3.50;;
13872;SDS011;7006;51.494;11.964;2022-08-03T07:59:35;4.20;;;2.97;;
13872;SDS011;7006;51.494;11.964;2022-08-03T08:02:03;4.20;;;3.20;;
13872;SDS011;7006;51.494;11.964;2022-08-03T08:04:31;7.47;;;3.10;;
13872;SDS011;7006;51.494;11.964;2022-08-03T08:06:58;6.13;;;3.47;;
13872;SDS011;7006;51.494;11.964;2022-08-03T08:09:24;4.10;;;3.13;;
13872;SDS011;7006;51.494;11.964;2022-08-03T08:11:51;5.80;;;3.17;;
13872;SDS011;7006;51.494;11.964;2022-08-03T08:14:17;5.83;;;3.80;;
13872;SDS011;7006;51.494;11.964;2022-08-03T08:16:45;3.80;;;3.20;;
13872;SDS011;7006;51.494;11.964;2022-08-03T08:19:13;8.00;;;3.30;;
13872;SDS011;7006;51.494;11.964;2022-08-03T08:21:40;4.50;;;3.30;;
13872;SDS011;7006;51.494;11.964;2022-08-03T08:24:07;5.30;;;3.13;;
13872;SDS011;7006;51.494;11.964;2022-08-03T08:26:34;5.87;;;3.33;;
13872;SDS011;7006;51.494;11.964;2022-08-03T08:29:00;4.27;;;3.10;;
13872;SDS011;7006;51.494;11.964;2022-08-03T08:31:27;6.30;;;3.50;;
13872;SDS011;7006;51.494;11.964;2022-08-03T08:33:55;8.00;;;3.53;;
13872;SDS011;7006;51.494;11.964;2022-08-03T08:36:21;5.10;;;2.97;;
13872;SDS011;7006;51.494;11.964;2022-08-03T08:38:48;4.30;;;2.80;;
13872;SDS011;7006;51.494;11.964;2022-08-03T08:41:15;4.60;;;2.90;;
13872;SDS011;7006;51.494;11.964;2022-08-03T08:43:42;3.80;;;3.13;;
13872;SDS011;7006;51.494;11.964;2022-08-03T08:46:10;6.80;;;3.50;;
13872;SDS011;7006;51.494;11.964;2022-08-03T08:48:39;5.90;;;3.30;;
13872;SDS011;7006;51.494;11.964;2022-08-03T08:51:07;3.70;;;2.80;;
13872;SDS011;7006;51.494;11.964;2022-08-03T08:53:34;4.87;;;2.47;;
13872;SDS011;7006;51.494;11.964;2022-08-03T08:56:02;4.37;;;3.03;;
13872;SDS011;7006;51.494;11.964;2022-08-03T08:58:33;6.23;;;3.43;;
13872;SDS011;7006;51.494;11.964;2022-08-03T09:01:02;4.80;;;2.83;;
13872;SDS011;7006;51.494;11.964;2022-08-03T09:03:31;6.70;;;4.70;;
13872;SDS011;7006;51.494;11.964;2022-08-03T09:05:59;7.57;;;3.63;;
13872;SDS011;7006;51.494;11.964;2022-08-03T09:08:29;3.40;;;3.00;;
13872;SDS011;7006;51.494;11.964;2022-08-03T09:10:56;3.90;;;3.00;;
13872;SDS011;7006;51.494;11.964;2022-08-03T09:13:23;4.57;;;2.90;;
13872;SDS011;7006;51.494;11.964;2022-08-03T09:16:04;3.10;;;2.80;;
13872;SDS011;7006;51.494;11.964;2022-08-03T09:18:34;3.23;;;2.80;;
13872;SDS011;7006;51.494;11.964;2022-08-03T09:21:11;3.27;;;2.90;;
13872;SDS011;7006;51.494;11.964;2022-08-03T09:23:44;4.87;;;2.73;;
13872;SDS011;7006;51.494;11.964;2022-08-03T09:26:12;7.13;;;3.00;;
13872;SDS011;7006;51.494;11.964;2022-08-03T09:28:39;4.97;;;3.03;;
13872;SDS011;7006;51.494;11.964;2022-08-03T09:31:06;3.27;;;2.97;;
13872;SDS011;7006;51.494;11.964;2022-08-03T09:33:33;3.20;;;2.90;;
13872;SDS011;7006;51.494;11.964;2022-08-03T09:39:02;3.27;;;2.97;;
13872;SDS011;7006;51.494;11.964;2022-08-03T09:41:30;4.10;;;3.07;;
13872;SDS011;7006;51.494;11.964;2022-08-03T09:43:57;3.60;;;3.30;;
13872;SDS011;7006;51.494;11.964;2022-08-03T09:46:24;6.10;;;3.57;;
13872;SDS011;7006;51.494;11.964;2022-08-03T09:48:52;3.63;;;3.30;;
13872;SDS011;7006;51.494;11.964;2022-08-03T09:51:22;4.07;;;3.67;;
13872;SDS011;7006;51.494;11.964;2022-08-03T09:53:49;3.93;;;3.53;;
13872;SDS011;7006;51.494;11.964;2022-08-03T09:56:17;4.80;;;2.97;;
13872;SDS011;7006;51.494;11.964;2022-08-03T09:58:44;4.27;;;3.33;;
13872;SDS011;7006;51.494;11.964;2022-08-03T10:01:12;3.27;;;2.97;;
13872;SDS011;7006;51.494;11.964;2022-08-03T10:03:38;3.17;;;2.87;;
13872;SDS011;7006;51.494;11.964;2022-08-03T10:06:13;5.40;;;3.80;;
13872;SDS011;7006;51.494;11.964;2022-08-03T10:08:40;5.33;;;3.20;;
13872;SDS011;7006;51.494;11.964;2022-08-03T10:11:06;4.47;;;3.67;;
13872;SDS011;7006;51.494;11.964;2022-08-03T10:13:34;5.13;;;3.60;;
13872;SDS011;7006;51.494;11.964;2022-08-03T10:16:01;4.50;;;3.20;;
13872;SDS011;7006;51.494;11.964;2022-08-03T10:18:30;7.00;;;3.23;;
13872;SDS011;7006;51.494;11.964;2022-08-03T10:20:58;7.93;;;3.20;;
13872;SDS011;7006;51.494;11.964;2022-08-03T10:23:27;6.13;;;2.80;;
13872;SDS011;7006;51.494;11.964;2022-08-03T10:25:56;4.47;;;3.47;;
13872;SDS011;7006;51.494;11.964;2022-08-03T10:28:24;5.97;;;3.20;;
13872;SDS011;7006;51.494;11.964;2022-08-03T10:30:52;5.47;;;3.50;;
13872;SDS011;7006;51.494;11.964;2022-08-03T10:33:20;3.60;;;3.10;;
13872;SDS011;7006;51.494;11.964;2022-08-03T10:35:49;3.30;;;3.00;;
13872;SDS011;7006;51.494;11.964;2022-08-03T10:38:18;3.43;;;3.00;;
13872;SDS011;7006;51.494;11.964;2022-08-03T10:40:46;3.63;;;3.13;;
13872;SDS011;7006;51.494;11.964;2022-08-03T10:43:17;3.50;;;3.20;;
13872;SDS011;7006;51.494;11.964;2022-08-03T10:45:45;4.33;;;3.20;;
13872;SDS011;7006;51.494;11.964;2022-08-03T10:48:13;4.47;;;3.17;;
13872;SDS011;7006;51.494;11.964;2022-08-03T10:50:40;3.40;;;3.10;;
13872;SDS011;7006;51.494;11.964;2022-08-03T10:53:11;4.50;;;2.90;;
13872;SDS011;7006;51.494;11.964;2022-08-03T10:55:38;3.87;;;3.00;;
13872;SDS011;7006;51.494;11.964;2022-08-03T10:58:45;3.93;;;3.53;;
13872;SDS011;7006;51.494;11.964;2022-08-03T11:01:15;3.50;;;3.20;;
13872;SDS011;7006;51.494;11.964;2022-08-03T11:06:44;4.07;;;3.67;;
13872;SDS011;7006;51.494;11.964;2022-08-03T11:09:24;3.20;;;2.90;;
13872;SDS011;7006;51.494;11.964;2022-08-03T11:11:52;4.40;;;2.97;;
13872;SDS011;7006;51.494;11.964;2022-08-03T11:14:20;3.23;;;2.93;;
13872;SDS011;7006;51.494;11.964;2022-08-03T11:16:49;6.53;;;3.50;;
13872;SDS011;7006;51.494;11.964;2022-08-03T11:19:43;3.57;;;2.90;;
13872;SDS011;7006;51.494;11.964;2022-08-03T11:22:11;4.97;;;3.33;;
13872;SDS011;7006;51.494;11.964;2022-08-03T11:27:28;4.00;;;3.40;;
13872;SDS011;7006;51.494;11.964;2022-08-03T11:30:00;3.60;;;2.73;;
13872;SDS011;7006;51.494;11.964;2022-08-03T11:35:27;4.67;;;3.40;;
13872;SDS011;7006;51.494;11.964;2022-08-03T11:38:08;3.30;;;2.80;;
13872;SDS011;7006;51.494;11.964;2022-08-03T11:40:40;5.07;;;3.10;;
13872;SDS011;7006;51.494;11.964;2022-08-03T11:43:09;4.00;;;3.10;;
13872;SDS011;7006;51.494;11.964;2022-08-03T11:45:36;4.00;;;3.13;;
13872;SDS011;7006;51.494;11.964;2022-08-03T11:48:14;3.63;;;2.90;;
13872;SDS011;7006;51.494;11.964;2022-08-03T11:50:43;3.47;;;3.10;;
13872;SDS011;7006;51.494;11.964;2022-08-03T11:53:14;5.07;;;3.00;;
13872;SDS011;7006;51.494;11.964;2022-08-03T11:55:42;4.73;;;3.17;;
13872;SDS011;7006;51.494;11.964;2022-08-03T11:58:19;3.67;;;2.93;;
13872;SDS011;7006;51.494;11.964;2022-08-03T12:00:46;3.10;;;2.80;;
13872;SDS011;7006;51.494;11.964;2022-08-03T12:03:14;5.43;;;3.20;;
13872;SDS011;7006;51.494;11.964;2022-08-03T12:05:44;3.80;;;2.50;;
13872;SDS011;7006;51.494;11.964;2022-08-03T12:08:13;3.07;;;2.77;;
13872;SDS011;7006;51.494;11.964;2022-08-03T12:10:45;4.13;;;2.60;;
13872;SDS011;7006;51.494;11.964;2022-08-03T12:13:17;7.70;;;2.87;;
13872;SDS011;7006;51.494;11.964;2022-08-03T12:15:49;3.77;;;2.60;;
13872;SDS011;7006;51.494;11.964;2022-08-03T12:18:18;3.27;;;2.70;;
13872;SDS011;7006;51.494;11.964;2022-08-03T12:20:47;3.53;;;2.70;;
13872;SDS011;7006;51.494;11.964;2022-08-03T12:23:14;4.80;;;2.97;;
13872;SDS011;7006;51.494;11.964;2022-08-03T12:25:42;3.40;;;2.87;;
13872;SDS011;7006;51.494;11.964;2022-08-03T12:28:10;2.90;;;2.70;;
13872;SDS011;7006;51.494;11.964;2022-08-03T12:30:41;4.80;;;3.37;;
13872;SDS011;7006;51.494;11.964;2022-08-03T12:33:15;4.93;;;2.70;;
13872;SDS011;7006;51.494;11.964;2022-08-03T12:35:50;4.03;;;2.87;;
13872;SDS011;7006;51.494;11.964;2022-08-03T12:38:29;3.00;;;2.50;;
13872;SDS011;7006;51.494;11.964;2022-08-03T12:41:00;5.40;;;2.90;;
13872;SDS011;7006;51.494;11.964;2022-08-03T12:43:27;4.23;;;3.20;;
13872;SDS011;7006;51.494;11.964;2022-08-03T12:46:10;2.80;;;2.30;;
13872;SDS011;7006;51.494;11.964;2022-08-03T12:51:31;5.50;;;2.50;;
13872;SDS011;7006;51.494;11.964;2022-08-03T12:53:58;3.03;;;2.20;;
13872;SDS011;7006;51.494;11.964;2022-08-03T12:56:25;2.77;;;2.50;;
13872;SDS011;7006;51.494;11.964;2022-08-03T12:58:52;3.20;;;2.50;;
13872;SDS011;7006;51.494;11.964;2022-08-03T13:01:19;4.10;;;2.77;;
13872;SDS011;7006;51.494;11.964;2022-08-03T13:03:48;3.60;;;2.80;;
13872;SDS011;7006;51.494;11.964;2022-08-03T13:06:16;4.20;;;3.00;;
13872;SDS011;7006;51.494;11.964;2022-08-03T13:08:45;3.80;;;2.80;;
13872;SDS011;7006;51.494;11.964;2022-08-03T13:11:19;3.77;;;3.07;;
13872;SDS011;7006;51.494;11.964;2022-08-03T13:13:49;3.60;;;3.07;;
13872;SDS011;7006;51.494;11.964;2022-08-03T13:16:15;3.03;;;2.73;;
13872;SDS011;7006;51.494;11.964;2022-08-03T13:18:42;3.27;;;2.67;;
13872;SDS011;7006;51.494;11.964;2022-08-03T13:21:10;3.20;;;2.70;;
13872;SDS011;7006;51.494;11.964;2022-08-03T13:23:37;4.10;;;3.37;;
13872;SDS011;7006;51.494;11.964;2022-08-03T13:26:05;4.33;;;3.00;;
13872;SDS011;7006;51.494;11.964;2022-08-03T13:28:32;4.63;;;2.77;;
13872;SDS011;7006;51.494;11.964;2022-08-03T13:30:58;4.30;;;3.10;;
13872;SDS011;7006;51.494;11.964;2022-08-03T13:33:25;4.13;;;2.90;;
13872;SDS011;7006;51.494;11.964;2022-08-03T13:35:52;4.03;;;3.37;;
13872;SDS011;7006;51.494;11.964;2022-08-03T13:38:19;4.37;;;3.00;;
13872;SDS011;7006;51.494;11.964;2022-08-03T13:40:46;5.83;;;3.10;;
13872;SDS011;7006;51.494;11.964;2022-08-03T13:43:13;7.53;;;3.47;;
13872;SDS011;7006;51.494;11.964;2022-08-03T13:45:40;5.10;;;3.07;;
13872;SDS011;7006;51.494;11.964;2022-08-03T13:48:06;4.80;;;3.20;;
13872;SDS011;7006;51.494;11.964;2022-08-03T13:50:33;3.00;;;2.63;;
13872;SDS011;7006;51.494;11.964;2022-08-03T13:52:59;3.47;;;2.60;;
13872;SDS011;7006;51.494;11.964;2022-08-03T13:55:26;4.77;;;2.67;;
13872;SDS011;7006;51.494;11.964;2022-08-03T13:57:52;3.30;;;3.00;;
13872;SDS011;7006;51.494;11.964;2022-08-03T14:00:20;3.07;;;2.77;;
13872;SDS011;7006;51.494;11.964;2022-08-03T14:02:50;5.07;;;2.80;;
13872;SDS011;7006;51.494;11.964;2022-08-03T14:05:16;5.20;;;3.03;;
13872;SDS011;7006;51.494;11.964;2022-08-03T14:07:43;3.60;;;2.80;;
13872;SDS011;7006;51.494;11.964;2022-08-03T14:10:09;4.27;;;2.90;;
13872;SDS011;7006;51.494;11.964;2022-08-03T14:12:36;3.83;;;2.90;;
13872;SDS011;7006;51.494;11.964;2022-08-03T14:15:03;3.77;;;3.07;;
13872;SDS011;7006;51.494;11.964;2022-08-03T14:17:35;5.43;;;2.60;;
13872;SDS011;7006;51.494;11.964;2022-08-03T14:20:01;4.67;;;3.10;;
13872;SDS011;7006;51.494;11.964;2022-08-03T14:22:30;3.30;;;2.83;;
13872;SDS011;7006;51.494;11.964;2022-08-03T14:24:57;5.77;;;3.30;;
13872;SDS011;7006;51.494;11.964;2022-08-03T14:27:23;3.10;;;2.60;;
13872;SDS011;7006;51.494;11.964;2022-08-03T14:29:49;3.00;;;2.60;;
13872;SDS011;7006;51.494;11.964;2022-08-03T14:32:16;7.37;;;2.90;;
13872;SDS011;7006;51.494;11.964;2022-08-03T14:34:44;5.27;;;2.50;;
13872;SDS011;7006;51.494;11.964;2022-08-03T14:37:10;3.20;;;2.83;;
13872;SDS011;7006;51.494;11.964;2022-08-03T14:39:37;3.40;;;2.70;;
13872;SDS011;7006;51.494;11.964;2022-08-03T14:42:03;3.90;;;2.50;;
13872;SDS011;7006;51.494;11.964;2022-08-03T14:44:30;3.13;;;2.83;;
13872;SDS011;7006;51.494;11.964;2022-08-03T14:46:57;3.77;;;2.70;;
13872;SDS011;7006;51.494;11.964;2022-08-03T14:49:23;4.00;;;2.83;;
13872;SDS011;7006;51.494;11.964;2022-08-03T14:51:51;3.63;;;2.50;;
13872;SDS011;7006;51.494;11.964;2022-08-03T14:54:18;3.17;;;2.87;;
13872;SDS011;7006;51.494;11.964;2022-08-03T14:56:44;4.47;;;2.73;;
13872;SDS011;7006;51.494;11.964;2022-08-03T14:59:11;3.30;;;2.70;;
13872;SDS011;7006;51.494;11.964;2022-08-03T15:01:37;3.63;;;2.60;;
13872;SDS011;7006;51.494;11.964;2022-08-03T15:04:04;4.50;;;4.10;;
13872;SDS011;7006;51.494;11.964;2022-08-03T15:06:30;4.20;;;3.07;;
13872;SDS011;7006;51.494;11.964;2022-08-03T15:08:58;6.23;;;2.93;;